createdAt,value
2022-09-21T00:03:28.694Z,4.82
2022-09-21T00:07:30.069Z,4.22
2022-09-21T00:11:33.185Z,4.75
2022-09-21T00:15:35.123Z,4.25
2022-09-21T00:19:36.782Z,4.35
2022-09-21T00:23:38.740Z,4.10
2022-09-21T00:27:40.184Z,2.78
2022-09-21T00:31:41.690Z,3.03
2022-09-21T00:35:43.162Z,3.00
2022-09-21T00:39:44.715Z,2.60
2022-09-21T00:43:49.217Z,3.00
2022-09-21T00:47:52.526Z,2.35
2022-09-21T00:51:54.956Z,2.40
2022-09-21T00:55:59.220Z,3.22
2022-09-21T01:00:04.994Z,2.78
2022-09-21T01:04:07.166Z,2.58
2022-09-21T01:08:13.088Z,2.63
2022-09-21T01:12:35.625Z,2.72
2022-09-21T01:16:56.377Z,2.45
2022-09-21T01:21:23.412Z,2.10
2022-09-21T01:25:37.537Z,2.17
2022-09-21T01:29:53.015Z,2.50
2022-09-21T01:34:01.613Z,2.45
2022-09-21T01:38:10.822Z,2.08
2022-09-21T01:42:14.150Z,2.53
2022-09-21T01:46:19.434Z,2.47
2022-09-21T01:50:21.272Z,2.42
2022-09-21T01:54:28.558Z,2.45
2022-09-21T01:58:52.477Z,2.85
2022-09-21T02:03:05.882Z,2.85
2022-09-21T02:07:08.469Z,2.50
2022-09-21T02:11:13.427Z,2.50
2022-09-21T02:15:15.128Z,2.60
2022-09-21T02:19:26.723Z,3.65
2022-09-21T02:23:40.765Z,3.00
2022-09-21T02:27:59.723Z,2.92
2022-09-21T02:32:51.372Z,3.08
2022-09-21T02:37:10.347Z,3.47
2022-09-21T02:41:25.102Z,4.53
2022-09-21T02:45:32.908Z,3.80
2022-09-21T02:49:39.054Z,3.88
2022-09-21T02:53:42.054Z,3.92
2022-09-21T02:57:45.794Z,5.03
2022-09-21T03:01:47.382Z,4.50
2022-09-21T03:05:51.068Z,4.28
2022-09-21T03:09:52.542Z,4.03
2022-09-21T03:13:54.645Z,3.20
2022-09-21T03:17:56.193Z,3.10
2022-09-21T03:21:57.740Z,3.20
2022-09-21T03:25:59.167Z,3.13
2022-09-21T03:30:02.331Z,3.35
2022-09-21T03:34:04.124Z,2.70
2022-09-21T03:38:05.876Z,2.67
2022-09-21T03:42:07.435Z,2.90
2022-09-21T03:46:08.954Z,2.65
2022-09-21T03:50:11.203Z,2.33
2022-09-21T03:54:12.707Z,2.60
2022-09-21T03:58:14.631Z,3.05
2022-09-21T04:02:16.975Z,3.20
2022-09-21T04:06:18.582Z,3.03
2022-09-21T04:10:24.203Z,3.58
2022-09-21T04:14:25.665Z,3.45
2022-09-21T04:18:27.118Z,3.20
2022-09-21T04:22:28.611Z,3.67
2022-09-21T04:26:32.654Z,3.60
2022-09-21T04:30:37.736Z,4.22
2022-09-21T04:34:39.591Z,4.15
2022-09-21T04:38:41.026Z,4.07
2022-09-21T04:42:42.547Z,6.05
2022-09-21T04:46:44.129Z,5.20
2022-09-21T04:50:49.618Z,4.80
2022-09-21T04:54:51.084Z,5.60
2022-09-21T04:58:52.451Z,4.85
2022-09-21T05:02:53.895Z,4.85
2022-09-21T05:06:55.321Z,4.88
2022-09-21T05:10:56.708Z,3.97
2022-09-21T05:14:58.164Z,4.22
2022-09-21T05:18:59.571Z,5.05
2022-09-21T05:23:02.272Z,4.28
2022-09-21T05:27:03.834Z,4.18
2022-09-21T05:31:18.464Z,4.18
2022-09-21T05:35:45.861Z,3.70
2022-09-21T05:39:47.515Z,3.90
2022-09-21T05:43:49.192Z,4.10
2022-09-21T05:48:01.029Z,4.03
2022-09-21T05:52:08.482Z,4.28
2022-09-21T05:56:48.441Z,4.22
2022-09-21T06:01:06.655Z,5.00
2022-09-21T06:05:12.759Z,5.18
2022-09-21T06:09:14.123Z,5.72
2022-09-21T06:13:15.848Z,5.30
2022-09-21T06:17:17.268Z,4.93
2022-09-21T06:21:18.715Z,4.78
2022-09-21T06:25:20.410Z,3.97
2022-09-21T06:29:23.613Z,4.20
2022-09-21T06:33:25.461Z,3.78
2022-09-21T06:37:26.860Z,4.10
2022-09-21T06:41:28.320Z,4.25
2022-09-21T06:45:31.108Z,3.47
2022-09-21T06:49:32.499Z,3.95
2022-09-21T06:53:34.399Z,3.95
2022-09-21T06:57:38.775Z,3.88
2022-09-21T07:01:40.515Z,3.72
2022-09-21T07:05:45.137Z,3.95
2022-09-21T07:14:08.156Z,4.03
2022-09-21T07:18:14.089Z,3.97
2022-09-21T07:22:15.504Z,4.70
2022-09-21T07:26:16.992Z,4.22
2022-09-21T07:30:18.463Z,3.78
2022-09-21T07:34:20.027Z,3.75
2022-09-21T07:38:21.449Z,3.90
2022-09-21T07:42:24.130Z,3.40
2022-09-21T07:46:25.634Z,3.35
2022-09-21T07:50:27.059Z,3.42
2022-09-21T07:54:28.499Z,3.20
2022-09-21T07:58:48.691Z,4.10
2022-09-21T08:06:51.693Z,3.88
2022-09-21T08:10:54.510Z,3.42
2022-09-21T08:14:55.935Z,3.22
2022-09-21T08:18:57.705Z,3.30
2022-09-21T08:23:00.062Z,3.15
2022-09-21T08:27:01.515Z,2.80
2022-09-21T08:31:05.868Z,2.55
2022-09-21T08:35:08.687Z,2.92
2022-09-21T08:39:10.253Z,2.70
2022-09-21T08:43:16.633Z,2.65
2022-09-21T08:47:39.599Z,2.55
2022-09-21T08:51:57.673Z,3.50
2022-09-21T08:55:59.354Z,3.90
2022-09-21T09:00:02.407Z,2.80
2022-09-21T09:04:22.102Z,2.95
2022-09-21T09:08:42.770Z,2.53
2022-09-21T09:13:05.979Z,2.70
2022-09-21T09:17:25.429Z,2.50
2022-09-21T09:21:40.205Z,1.95
2022-09-21T09:25:43.404Z,1.85
2022-09-21T09:30:04.348Z,1.85
2022-09-21T09:34:29.358Z,3.30
2022-09-21T09:38:39.597Z,1.55
2022-09-21T09:43:07.812Z,1.50
2022-09-21T09:47:28.181Z,1.13
2022-09-21T09:51:29.802Z,1.30
2022-09-21T09:55:40.595Z,1.13
2022-09-21T09:59:53.366Z,1.20
2022-09-21T10:04:08.754Z,1.23
2022-09-21T10:08:44.421Z,1.40
2022-09-21T10:12:47.521Z,1.00
2022-09-21T10:16:51.975Z,1.20
2022-09-21T10:21:00.114Z,1.00
2022-09-21T10:25:06.005Z,0.90
2022-09-21T10:29:18.707Z,0.80
2022-09-21T10:33:22.212Z,0.80
2022-09-21T10:37:29.403Z,1.02
2022-09-21T10:41:30.957Z,0.90
2022-09-21T10:45:37.082Z,0.93
2022-09-21T10:49:48.209Z,0.65
2022-09-21T10:53:53.770Z,0.95
2022-09-21T10:57:57.041Z,0.85
2022-09-21T11:02:00.691Z,0.85
2022-09-21T11:06:16.745Z,1.05
2022-09-21T11:10:34.644Z,0.95
2022-09-21T11:14:51.415Z,0.93
2022-09-21T11:18:58.766Z,0.80
2022-09-21T11:23:10.919Z,1.10
2022-09-21T11:27:22.655Z,1.10
2022-09-21T11:31:37.207Z,0.80
2022-09-21T11:35:53.253Z,1.00
2022-09-21T11:40:12.895Z,1.15
2022-09-21T11:44:32.224Z,1.27
2022-09-21T11:48:40.160Z,0.80
2022-09-21T11:52:53.323Z,0.70
2022-09-21T11:57:22.862Z,0.90
2022-09-21T12:01:36.694Z,0.80
2022-09-21T12:06:11.927Z,1.60
2022-09-21T12:10:39.945Z,1.15
2022-09-21T12:14:59.814Z,1.13
2022-09-21T12:19:33.716Z,0.93
2022-09-21T12:23:45.140Z,0.60
2022-09-21T12:27:51.969Z,0.90
2022-09-21T12:32:01.639Z,0.95
2022-09-21T12:36:25.668Z,0.80
2022-09-21T12:40:48.065Z,1.23
2022-09-21T12:44:58.486Z,1.02
2022-09-21T12:49:05.654Z,0.80
2022-09-21T12:53:14.442Z,0.70
2022-09-21T12:57:45.463Z,0.77
2022-09-21T13:01:57.178Z,0.82
2022-09-21T13:06:37.511Z,1.00
2022-09-21T13:10:54.703Z,1.13
2022-09-21T13:15:04.890Z,1.10
2022-09-21T13:19:24.534Z,1.00
2022-09-21T13:28:09.335Z,0.80
2022-09-21T13:32:14.020Z,1.08
2022-09-21T13:36:36.220Z,1.30
2022-09-21T13:40:37.857Z,1.20
2022-09-21T13:44:42.277Z,1.27
2022-09-21T13:48:43.774Z,2.55
2022-09-21T13:52:51.944Z,2.55
2022-09-21T13:57:00.465Z,1.00
2022-09-21T14:01:29.501Z,1.20
2022-09-21T14:05:44.203Z,0.60
2022-09-21T14:10:01.436Z,0.70
2022-09-21T14:14:05.687Z,0.90
2022-09-21T14:18:35.734Z,0.90
2022-09-21T14:22:38.414Z,0.93
2022-09-21T14:26:39.788Z,0.80
2022-09-21T14:30:50.288Z,0.77
2022-09-21T14:34:57.114Z,0.95
2022-09-21T14:39:03.260Z,1.27
2022-09-21T14:43:20.877Z,0.80
2022-09-21T14:47:51.979Z,0.85
2022-09-21T14:52:32.574Z,0.93
2022-09-21T14:56:39.079Z,0.80
2022-09-21T15:00:43.494Z,0.70
2022-09-21T15:05:06.610Z,0.77
2022-09-21T15:09:46.098Z,14.73
2022-09-21T15:14:12.157Z,0.80
2022-09-21T15:18:20.124Z,0.80
2022-09-21T15:22:22.527Z,0.73
2022-09-21T15:26:26.799Z,0.50
2022-09-21T15:30:33.087Z,0.95
2022-09-21T15:34:34.553Z,1.10
2022-09-21T15:38:38.550Z,5.80
2022-09-21T15:43:04.624Z,1.20
2022-09-21T15:47:13.049Z,4.28
2022-09-21T15:51:33.690Z,1.20
2022-09-21T15:55:35.335Z,1.08
2022-09-21T15:59:37.012Z,1.15
2022-09-21T16:03:39.853Z,0.93
2022-09-21T16:07:41.646Z,0.95
2022-09-21T16:11:43.087Z,1.13
2022-09-21T16:16:00.559Z,1.00
2022-09-21T16:20:15.599Z,3.85
2022-09-21T16:24:19.472Z,3.60
2022-09-21T16:28:21.426Z,2.00
2022-09-21T16:32:32.834Z,1.02
2022-09-21T16:36:37.936Z,1.00
2022-09-21T16:40:39.643Z,0.95
2022-09-21T16:44:47.005Z,1.20
2022-09-21T16:48:48.905Z,1.10
2022-09-21T16:52:52.336Z,1.20
2022-09-21T16:57:06.316Z,1.10
2022-09-21T17:01:11.448Z,1.42
2022-09-21T17:05:21.532Z,1.30
2022-09-21T17:09:37.715Z,1.60
2022-09-21T17:13:54.214Z,1.50
2022-09-21T17:17:58.070Z,1.70
2022-09-21T17:21:59.721Z,1.33
2022-09-21T17:26:22.053Z,1.80
2022-09-21T17:30:25.104Z,2.30
2022-09-21T17:34:28.746Z,2.05
2022-09-21T17:38:30.142Z,3.63
2022-09-21T17:42:38.087Z,2.65
2022-09-21T17:46:51.363Z,2.65
2022-09-21T17:50:53.034Z,2.80
2022-09-21T17:54:54.763Z,2.45
2022-09-21T17:59:02.671Z,1.85
2022-09-21T18:03:04.675Z,2.40
2022-09-21T18:07:06.585Z,2.72
2022-09-21T18:11:36.245Z,2.25
2022-09-21T18:15:49.442Z,2.60
2022-09-21T18:20:29.389Z,1.88
2022-09-21T18:24:46.859Z,2.22
2022-09-21T18:28:56.197Z,1.90
2022-09-21T18:33:13.033Z,2.50
2022-09-21T18:37:38.094Z,2.10
2022-09-21T18:42:10.033Z,2.25
2022-09-21T18:46:16.920Z,2.40
2022-09-21T18:50:31.751Z,2.33
2022-09-21T18:54:33.532Z,3.60
2022-09-21T18:58:42.770Z,3.75
2022-09-21T19:03:12.337Z,2.75
2022-09-21T19:07:31.480Z,2.50
2022-09-21T19:12:14.135Z,3.40
2022-09-21T19:16:34.916Z,2.20
2022-09-21T19:21:16.278Z,2.78
2022-09-21T19:25:35.763Z,2.70
2022-09-21T19:30:12.532Z,3.25
2022-09-21T19:34:26.842Z,3.70
2022-09-21T19:38:31.628Z,4.10
2022-09-21T19:42:52.342Z,4.57
2022-09-21T19:47:05.860Z,5.28
2022-09-21T19:51:16.313Z,3.58
2022-09-21T19:55:43.401Z,3.72
2022-09-21T19:59:45.452Z,4.47
2022-09-21T20:03:48.651Z,4.07
2022-09-21T20:07:58.050Z,4.85
2022-09-21T20:12:27.096Z,4.72
2022-09-21T20:16:46.593Z,4.10
2022-09-21T20:20:48.372Z,4.10
2022-09-21T20:24:56.709Z,3.80
2022-09-21T20:28:58.607Z,4.10
2022-09-21T20:33:13.726Z,3.35
2022-09-21T20:37:15.318Z,4.00
2022-09-21T20:41:18.954Z,4.45
2022-09-21T20:45:21.077Z,4.90
2022-09-21T20:49:22.477Z,5.13
2022-09-21T20:53:24.656Z,4.13
2022-09-21T20:57:26.048Z,5.10
2022-09-21T21:01:27.607Z,3.92
2022-09-21T21:05:29.158Z,4.88
2022-09-21T21:09:30.939Z,4.45
2022-09-21T21:13:33.219Z,4.30
2022-09-21T21:17:36.476Z,4.15
2022-09-21T21:21:38.666Z,4.35
2022-09-21T21:25:40.087Z,4.40
2022-09-21T21:29:42.303Z,4.38
2022-09-21T21:33:43.824Z,4.93
2022-09-21T21:37:45.351Z,4.65
2022-09-21T21:41:47.328Z,4.93
2022-09-21T21:45:57.680Z,4.43
2022-09-21T21:50:03.741Z,4.30
2022-09-21T21:54:05.410Z,4.85
2022-09-21T21:58:06.942Z,4.75
2022-09-21T22:02:08.356Z,4.63
2022-09-21T22:06:10.919Z,4.20
2022-09-21T22:10:12.906Z,4.20
2022-09-21T22:14:14.352Z,4.78
2022-09-21T22:18:19.465Z,4.47
2022-09-21T22:22:21.081Z,5.00
2022-09-21T22:26:23.315Z,4.60
2022-09-21T22:30:24.737Z,4.88
2022-09-21T22:34:26.210Z,4.97
2022-09-21T22:38:29.941Z,4.57
2022-09-21T22:42:31.774Z,5.30
2022-09-21T22:46:34.130Z,5.38
2022-09-21T22:50:35.552Z,5.90
2022-09-21T22:54:36.921Z,5.50
2022-09-21T22:58:40.778Z,5.75
2022-09-21T23:02:43.526Z,7.03
2022-09-21T23:06:45.252Z,8.30
2022-09-21T23:10:46.658Z,7.85
2022-09-21T23:14:48.047Z,7.40
2022-09-21T23:18:50.522Z,6.55
2022-09-21T23:22:52.049Z,6.28
2022-09-21T23:26:53.573Z,5.78
2022-09-21T23:31:00.333Z,4.80
2022-09-21T23:35:01.887Z,4.88
2022-09-21T23:39:05.435Z,4.45
2022-09-21T23:43:06.878Z,4.15
2022-09-21T23:47:08.392Z,4.00
2022-09-21T23:51:10.598Z,3.22
2022-09-21T23:55:11.982Z,3.83
2022-09-21T23:59:13.393Z,3.50
